createdAt,value
2022-10-15T00:01:26.127Z,11.34
2022-10-15T00:03:53.730Z,11.30
2022-10-15T00:06:22.500Z,11.21
2022-10-15T00:08:51.320Z,11.23
2022-10-15T00:11:21.194Z,11.19
2022-10-15T00:13:49.314Z,11.22
2022-10-15T00:16:19.565Z,11.23
2022-10-15T00:18:48.028Z,11.26
2022-10-15T00:21:17.620Z,11.26
2022-10-15T00:23:45.916Z,11.25
2022-10-15T00:26:17.616Z,11.23
2022-10-15T00:28:45.823Z,11.27
2022-10-15T00:31:15.620Z,11.19
2022-10-15T00:33:44.067Z,11.20
2022-10-15T00:36:14.362Z,11.17
2022-10-15T00:38:42.608Z,11.21
2022-10-15T00:41:16.624Z,11.18
2022-10-15T00:43:46.427Z,11.20
2022-10-15T00:46:20.504Z,11.19
2022-10-15T00:48:50.316Z,11.19
2022-10-15T00:51:20.157Z,11.18
2022-10-15T00:53:49.248Z,11.19
2022-10-15T00:56:20.965Z,11.14
2022-10-15T00:58:49.659Z,11.00
2022-10-15T01:01:17.180Z,11.20
2022-10-15T01:03:44.686Z,11.26
2022-10-15T01:06:12.128Z,11.26
2022-10-15T01:08:39.744Z,11.20
2022-10-15T01:11:25.057Z,11.12
2022-10-15T01:14:05.132Z,11.09
2022-10-15T01:16:41.064Z,11.13
2022-10-15T01:19:24.557Z,11.15
2022-10-15T01:21:56.658Z,11.07
2022-10-15T01:25:03.752Z,11.12
2022-10-15T01:27:39.553Z,11.10
2022-10-15T01:30:31.659Z,11.12
2022-10-15T01:33:11.448Z,11.01
2022-10-15T01:35:48.971Z,11.11
2022-10-15T01:38:31.130Z,11.15
2022-10-15T01:41:01.716Z,11.14
2022-10-15T01:43:33.907Z,11.12
2022-10-15T01:46:07.374Z,11.11
2022-10-15T01:48:37.356Z,10.96
2022-10-15T01:51:07.237Z,11.12
2022-10-15T01:53:37.034Z,11.13
2022-10-15T01:56:09.525Z,11.13
2022-10-15T01:58:40.106Z,11.12
2022-10-15T02:01:09.223Z,11.11
2022-10-15T02:03:45.922Z,11.07
2022-10-15T02:06:18.428Z,11.10
2022-10-15T02:08:57.162Z,11.07
2022-10-15T02:11:24.922Z,11.06
2022-10-15T02:14:02.614Z,11.07
2022-10-15T02:16:45.271Z,10.98
2022-10-15T02:19:19.370Z,10.96
2022-10-15T02:21:51.112Z,10.92
2022-10-15T02:24:23.118Z,10.96
2022-10-15T02:26:53.892Z,10.91
2022-10-15T02:29:24.816Z,10.89
2022-10-15T02:31:55.085Z,10.89
2022-10-15T02:34:26.155Z,10.80
2022-10-15T02:36:54.542Z,10.73
2022-10-15T02:39:25.049Z,10.73
2022-10-15T02:41:53.336Z,10.73
2022-10-15T02:44:20.816Z,10.70
2022-10-15T02:46:48.258Z,10.68
2022-10-15T02:49:17.038Z,10.70
2022-10-15T02:51:44.424Z,10.66
2022-10-15T02:54:11.893Z,10.67
2022-10-15T02:56:39.852Z,10.57
2022-10-15T02:59:07.472Z,10.58
2022-10-15T03:01:35.608Z,10.65
2022-10-15T03:04:03.356Z,10.67
2022-10-15T03:06:32.115Z,10.68
2022-10-15T03:08:59.546Z,10.64
2022-10-15T03:11:26.972Z,10.65
2022-10-15T03:13:54.429Z,10.63
2022-10-15T03:16:21.961Z,10.60
2022-10-15T03:18:49.364Z,10.60
2022-10-15T03:21:16.916Z,10.50
2022-10-15T03:23:45.661Z,10.59
2022-10-15T03:26:13.076Z,10.62
2022-10-15T03:28:40.618Z,10.61
2022-10-15T03:31:08.253Z,10.59
2022-10-15T03:33:35.650Z,10.56
2022-10-15T03:36:03.057Z,10.51
2022-10-15T03:38:30.459Z,10.57
2022-10-15T03:40:59.231Z,10.60
2022-10-15T03:43:27.144Z,10.64
2022-10-15T03:45:54.655Z,10.58
2022-10-15T03:48:22.419Z,10.65
2022-10-15T03:50:49.821Z,10.63
2022-10-15T03:53:17.255Z,10.65
2022-10-15T03:55:44.660Z,10.64
2022-10-15T03:58:13.424Z,10.59
2022-10-15T04:00:42.492Z,10.59
2022-10-15T04:03:09.966Z,10.68
2022-10-15T04:05:37.724Z,10.62
2022-10-15T04:08:05.531Z,10.61
2022-10-15T04:10:32.975Z,10.66
2022-10-15T04:13:00.435Z,10.62
2022-10-15T04:15:29.173Z,10.62
2022-10-15T04:17:56.715Z,10.58
2022-10-15T04:20:24.463Z,10.56
2022-10-15T04:22:51.872Z,10.52
2022-10-15T04:25:19.275Z,10.47
2022-10-15T04:27:46.691Z,10.42
2022-10-15T04:30:15.076Z,10.37
2022-10-15T04:32:43.852Z,10.28
2022-10-15T04:35:11.376Z,10.26
2022-10-15T04:37:38.839Z,10.24
2022-10-15T04:40:07.556Z,10.18
2022-10-15T04:42:35.181Z,10.18
2022-10-15T04:45:02.637Z,10.12
2022-10-15T04:47:30.030Z,10.14
2022-10-15T04:49:58.799Z,10.17
2022-10-15T04:52:26.212Z,10.10
2022-10-15T04:54:53.631Z,10.16
2022-10-15T04:57:21.361Z,10.14
2022-10-15T04:59:52.555Z,10.12
2022-10-15T05:02:22.813Z,10.09
2022-10-15T05:04:50.517Z,10.07
2022-10-15T05:07:19.323Z,10.06
2022-10-15T05:09:46.770Z,10.07
2022-10-15T05:12:14.190Z,10.04
2022-10-15T05:14:41.779Z,10.00
2022-10-15T05:17:09.204Z,10.04
2022-10-15T05:19:36.612Z,10.04
2022-10-15T05:22:04.037Z,10.08
2022-10-15T05:24:32.801Z,10.08
2022-10-15T05:27:02.825Z,10.05
2022-10-15T05:29:31.025Z,10.07
2022-10-15T05:31:58.489Z,10.14
2022-10-15T05:34:28.493Z,10.15
2022-10-15T05:36:55.881Z,10.23
2022-10-15T05:39:23.833Z,10.30
2022-10-15T05:41:53.422Z,10.23
2022-10-15T05:44:20.851Z,10.30
2022-10-15T05:46:48.379Z,10.27
2022-10-15T05:49:16.052Z,10.33
2022-10-15T05:51:43.531Z,10.34
2022-10-15T05:54:11.206Z,10.32
2022-10-15T05:56:38.616Z,10.37
2022-10-15T05:59:07.404Z,10.41
2022-10-15T06:01:34.912Z,10.38
2022-10-15T06:04:02.384Z,10.37
2022-10-15T06:06:29.811Z,10.49
2022-10-15T06:08:59.714Z,10.48
2022-10-15T06:11:27.200Z,10.58
2022-10-15T06:13:54.680Z,10.62
2022-10-15T06:16:24.176Z,10.61
2022-10-15T06:18:52.984Z,10.65
2022-10-15T06:21:20.389Z,10.65
2022-10-15T06:23:47.885Z,10.67
2022-10-15T06:26:15.343Z,10.68
2022-10-15T06:28:42.811Z,10.74
2022-10-15T06:31:10.599Z,10.79
2022-10-15T06:33:39.496Z,10.78
2022-10-15T06:36:08.903Z,10.81
2022-10-15T06:38:36.943Z,10.86
2022-10-15T06:41:05.306Z,10.89
2022-10-15T06:43:35.169Z,10.92
2022-10-15T06:46:03.980Z,10.99
2022-10-15T06:48:32.572Z,11.00
2022-10-15T06:51:02.256Z,10.99
2022-10-15T06:53:31.171Z,11.07
2022-10-15T06:55:59.411Z,11.12
2022-10-15T06:58:27.655Z,11.20
2022-10-15T07:01:00.853Z,11.27
2022-10-15T07:03:28.735Z,11.31
2022-10-15T07:05:56.308Z,11.45
2022-10-15T07:08:25.916Z,11.38
2022-10-15T07:10:53.398Z,11.52
2022-10-15T07:13:20.848Z,11.55
2022-10-15T07:15:53.686Z,11.61
2022-10-15T07:18:21.170Z,11.62
2022-10-15T07:20:48.913Z,11.60
2022-10-15T07:23:16.335Z,11.67
2022-10-15T07:25:45.136Z,11.76
2022-10-15T07:28:12.536Z,11.91
2022-10-15T07:30:39.931Z,12.05
2022-10-15T07:33:07.400Z,12.12
2022-10-15T07:35:34.888Z,12.11
2022-10-15T07:38:02.837Z,12.03
2022-10-15T07:40:30.521Z,12.06
2022-10-15T07:43:00.136Z,12.09
2022-10-15T07:45:28.038Z,12.13
2022-10-15T07:47:55.494Z,12.18
2022-10-15T07:50:22.937Z,12.25
2022-10-15T07:52:50.484Z,12.29
2022-10-15T07:55:18.049Z,12.30
2022-10-15T07:57:45.480Z,12.33
2022-10-15T08:00:14.787Z,12.40
2022-10-15T08:02:42.213Z,12.46
2022-10-15T08:05:10.277Z,12.53
2022-10-15T08:07:37.763Z,12.54
2022-10-15T08:10:06.349Z,12.49
2022-10-15T08:12:33.814Z,12.51
2022-10-15T08:15:01.223Z,12.46
2022-10-15T08:17:29.988Z,12.44
2022-10-15T08:19:57.381Z,12.45
2022-10-15T08:22:25.268Z,12.50
2022-10-15T08:24:53.131Z,12.51
2022-10-15T08:27:20.543Z,12.57
2022-10-15T08:29:48.008Z,12.66
2022-10-15T08:32:15.415Z,12.70
2022-10-15T08:34:44.252Z,12.73
2022-10-15T08:37:11.793Z,12.85
2022-10-15T08:39:39.410Z,12.98
2022-10-15T08:42:14.573Z,13.11
2022-10-15T08:44:45.852Z,13.21
2022-10-15T08:47:27.149Z,13.24
2022-10-15T08:49:59.271Z,13.15
2022-10-15T08:52:37.415Z,13.22
2022-10-15T08:55:05.615Z,13.06
2022-10-15T08:57:41.070Z,13.04
2022-10-15T09:00:15.016Z,12.96
2022-10-15T09:02:51.312Z,13.11
2022-10-15T09:05:29.824Z,13.35
2022-10-15T09:08:05.420Z,13.38
2022-10-15T09:10:39.257Z,13.41
2022-10-15T09:13:15.479Z,13.39
2022-10-15T09:15:51.797Z,13.43
2022-10-15T09:18:23.697Z,13.45
2022-10-15T09:20:53.540Z,13.50
2022-10-15T09:23:24.331Z,13.51
2022-10-15T09:25:59.319Z,13.55
2022-10-15T09:28:38.056Z,13.47
2022-10-15T09:31:09.431Z,13.40
2022-10-15T09:33:42.683Z,13.37
2022-10-15T09:36:22.660Z,13.24
2022-10-15T09:39:05.827Z,13.21
2022-10-15T09:41:40.739Z,13.26
2022-10-15T09:44:14.035Z,13.20
2022-10-15T09:46:45.991Z,13.15
2022-10-15T09:49:19.290Z,13.15
2022-10-15T09:51:58.689Z,13.17
2022-10-15T09:54:32.194Z,13.22
2022-10-15T09:56:59.638Z,13.28
2022-10-15T09:59:27.971Z,13.36
2022-10-15T10:02:00.915Z,13.49
2022-10-15T10:04:30.036Z,13.54
2022-10-15T10:07:01.250Z,13.66
2022-10-15T10:09:32.923Z,13.65
2022-10-15T10:12:02.883Z,13.73
2022-10-15T10:14:33.054Z,13.76
2022-10-15T10:17:06.716Z,13.88
2022-10-15T10:19:34.223Z,13.81
2022-10-15T10:22:15.068Z,13.90
2022-10-15T10:24:42.538Z,13.89
2022-10-15T10:27:25.499Z,13.84
2022-10-15T10:30:00.411Z,13.92
2022-10-15T10:32:30.704Z,13.91
2022-10-15T10:34:59.702Z,13.91
2022-10-15T10:37:29.354Z,13.98
2022-10-15T10:39:59.045Z,14.02
2022-10-15T10:42:31.873Z,14.08
2022-10-15T10:45:18.584Z,14.12
2022-10-15T10:47:46.785Z,14.23
2022-10-15T10:50:30.240Z,14.38
2022-10-15T10:53:11.140Z,14.27
2022-10-15T10:55:40.406Z,14.26
2022-10-15T10:58:20.128Z,14.21
2022-10-15T11:00:52.773Z,14.33
2022-10-15T11:03:29.427Z,14.24
2022-10-15T11:06:04.653Z,14.28
2022-10-15T11:08:41.515Z,14.30
2022-10-15T11:11:19.397Z,14.37
2022-10-15T11:13:57.096Z,14.42
2022-10-15T11:16:34.078Z,14.26
2022-10-15T11:19:25.418Z,14.30
2022-10-15T11:25:07.643Z,14.40
2022-10-15T11:27:52.192Z,14.47
2022-10-15T11:30:31.231Z,14.54
2022-10-15T11:33:14.548Z,14.53
2022-10-15T11:35:53.949Z,14.56
2022-10-15T11:38:30.182Z,14.51
2022-10-15T11:41:15.249Z,14.57
2022-10-15T11:43:56.485Z,14.69
2022-10-15T11:46:32.715Z,14.74
2022-10-15T11:49:12.231Z,14.70
2022-10-15T11:51:56.896Z,14.87
2022-10-15T11:54:31.716Z,14.90
2022-10-15T11:57:04.652Z,15.02
2022-10-15T11:59:38.539Z,15.12
2022-10-15T12:02:13.806Z,15.09
2022-10-15T12:04:45.749Z,15.09
2022-10-15T12:07:19.496Z,15.11
2022-10-15T12:09:50.256Z,15.16
2022-10-15T12:12:29.238Z,15.18
2022-10-15T12:15:08.648Z,15.29
2022-10-15T12:17:47.064Z,15.41
2022-10-15T12:20:16.885Z,15.40
2022-10-15T12:22:55.851Z,15.41
2022-10-15T12:25:41.658Z,15.53
2022-10-15T12:28:18.386Z,15.67
2022-10-15T12:30:59.461Z,15.80
2022-10-15T12:33:34.156Z,15.73
2022-10-15T12:36:06.007Z,15.71
2022-10-15T12:38:35.403Z,15.68
2022-10-15T12:41:07.079Z,15.67
2022-10-15T12:43:39.148Z,15.59
2022-10-15T12:46:09.142Z,15.64
2022-10-15T12:48:40.409Z,15.49
2022-10-15T12:51:37.659Z,15.48
2022-10-15T12:54:42.776Z,15.41
2022-10-15T12:57:47.579Z,15.66
2022-10-15T13:00:40.422Z,15.79
2022-10-15T13:03:36.375Z,15.83
2022-10-15T13:06:27.040Z,15.80
2022-10-15T13:09:01.609Z,15.78
2022-10-15T13:11:31.779Z,15.79
2022-10-15T13:14:02.412Z,15.94
2022-10-15T13:16:32.239Z,16.10
2022-10-15T13:19:00.279Z,16.10
2022-10-15T13:21:50.417Z,16.07
2022-10-15T13:24:20.901Z,16.12
2022-10-15T13:26:49.081Z,16.04
2022-10-15T13:29:17.844Z,15.90
2022-10-15T13:31:48.058Z,15.79
2022-10-15T13:34:25.010Z,15.86
2022-10-15T13:36:53.619Z,15.80
2022-10-15T13:39:29.358Z,15.74
2022-10-15T13:42:08.769Z,15.71
2022-10-15T13:44:36.756Z,15.73
2022-10-15T13:47:24.488Z,15.71
2022-10-15T13:49:51.999Z,15.62
2022-10-15T13:52:19.656Z,15.57
2022-10-15T13:54:47.612Z,15.61
2022-10-15T13:57:17.883Z,15.63
2022-10-15T13:59:47.103Z,15.75
2022-10-15T14:02:16.192Z,15.81
2022-10-15T14:04:44.780Z,15.84
2022-10-15T14:07:24.720Z,15.82
2022-10-15T14:09:52.679Z,15.79
2022-10-15T14:12:20.151Z,15.73
2022-10-15T14:14:49.108Z,15.69
2022-10-15T14:17:25.360Z,15.64
2022-10-15T14:20:14.811Z,15.56
2022-10-15T14:22:43.665Z,15.55
2022-10-15T14:27:46.429Z,15.42
2022-10-15T14:30:15.168Z,15.60
2022-10-15T14:32:48.414Z,15.55
2022-10-15T14:35:29.832Z,15.63
2022-10-15T14:38:01.890Z,15.59
2022-10-15T14:40:29.568Z,15.74
2022-10-15T14:43:05.856Z,15.78
2022-10-15T14:45:41.176Z,15.76
2022-10-15T14:48:13.287Z,15.79
2022-10-15T14:50:44.278Z,15.68
2022-10-15T14:53:18.771Z,15.61
2022-10-15T14:55:52.212Z,15.58
2022-10-15T14:58:23.286Z,15.50
2022-10-15T15:00:57.899Z,15.53
2022-10-15T15:03:31.654Z,15.47
2022-10-15T15:05:59.240Z,15.42
2022-10-15T15:08:27.529Z,15.46
2022-10-15T15:10:58.320Z,15.53
2022-10-15T15:13:28.103Z,15.40
2022-10-15T15:15:55.687Z,15.40
2022-10-15T15:18:23.627Z,15.25
2022-10-15T15:20:52.411Z,15.24
2022-10-15T15:23:21.943Z,15.23
2022-10-15T15:25:50.332Z,15.24
2022-10-15T15:28:20.399Z,15.21
2022-10-15T15:30:52.183Z,15.16
2022-10-15T15:33:19.566Z,15.08
2022-10-15T15:35:51.433Z,15.06
2022-10-15T15:38:21.597Z,15.04
2022-10-15T15:40:49.371Z,15.02
2022-10-15T15:43:18.452Z,14.96
2022-10-15T15:45:47.552Z,15.00
2022-10-15T15:48:14.992Z,15.00
2022-10-15T15:50:42.604Z,14.94
2022-10-15T15:53:12.920Z,14.87
2022-10-15T15:55:41.659Z,14.89
2022-10-15T15:58:09.090Z,14.89
2022-10-15T16:00:36.543Z,14.86
2022-10-15T16:03:04.018Z,14.83
2022-10-15T16:05:31.449Z,14.78
2022-10-15T16:07:58.848Z,14.76
2022-10-15T16:10:26.261Z,14.71
2022-10-15T16:12:56.136Z,14.65
2022-10-15T16:15:23.534Z,14.65
2022-10-15T16:17:50.971Z,14.58
2022-10-15T16:20:18.553Z,14.54
2022-10-15T16:22:45.972Z,14.49
2022-10-15T16:25:13.379Z,14.46
2022-10-15T16:27:40.777Z,14.46
2022-10-15T16:30:10.904Z,14.44
2022-10-15T16:32:38.447Z,14.41
2022-10-15T16:35:06.776Z,14.31
2022-10-15T16:37:34.206Z,14.03
2022-10-15T16:40:01.702Z,13.89
2022-10-15T16:42:29.203Z,13.79
2022-10-15T16:44:56.615Z,13.79
2022-10-15T16:47:25.575Z,13.76
2022-10-15T16:49:55.351Z,13.72
2022-10-15T16:52:23.050Z,13.75
2022-10-15T16:54:50.768Z,13.68
2022-10-15T16:57:18.197Z,13.67
2022-10-15T16:59:45.614Z,13.54
2022-10-15T17:02:13.032Z,13.53
2022-10-15T17:04:41.820Z,13.39
2022-10-15T17:07:09.198Z,13.35
2022-10-15T17:09:37.443Z,13.33
2022-10-15T17:12:05.576Z,13.23
2022-10-15T17:14:33.087Z,13.20
2022-10-15T17:17:00.475Z,13.14
2022-10-15T17:19:30.610Z,13.01
2022-10-15T17:22:02.120Z,13.11
2022-10-15T17:24:29.712Z,13.15
2022-10-15T17:26:57.873Z,13.13
2022-10-15T17:29:29.061Z,13.10
2022-10-15T17:32:01.634Z,13.09
2022-10-15T17:34:29.037Z,13.04
2022-10-15T17:36:57.058Z,13.02
2022-10-15T17:39:25.891Z,13.04
2022-10-15T17:41:53.297Z,13.04
2022-10-15T17:44:21.635Z,13.01
2022-10-15T17:49:21.456Z,12.94
2022-10-15T17:51:48.898Z,12.94
2022-10-15T17:54:16.614Z,12.94
2022-10-15T17:56:45.343Z,12.99
2022-10-15T17:59:13.459Z,12.95
2022-10-15T18:01:59.848Z,12.84
2022-10-15T18:04:28.487Z,12.86
2022-10-15T18:06:55.958Z,12.83
2022-10-15T18:09:23.430Z,12.79
2022-10-15T18:11:52.291Z,12.77
2022-10-15T18:16:48.144Z,12.78
2022-10-15T18:19:15.638Z,12.68
2022-10-15T18:21:47.007Z,12.72
2022-10-15T18:24:19.101Z,12.64
2022-10-15T18:26:46.502Z,12.72
2022-10-15T18:29:15.267Z,12.67
2022-10-15T18:31:42.710Z,12.65
2022-10-15T18:34:10.237Z,12.58
2022-10-15T18:36:41.367Z,12.55
2022-10-15T18:39:08.867Z,12.59
2022-10-15T18:41:38.068Z,12.60
2022-10-15T18:44:07.685Z,12.56
2022-10-15T18:46:38.032Z,12.50
2022-10-15T18:49:05.470Z,12.65
2022-10-15T18:51:32.960Z,12.57
2022-10-15T18:54:01.363Z,12.60
2022-10-15T18:56:29.269Z,12.42
2022-10-15T18:58:56.830Z,12.41
2022-10-15T19:01:27.628Z,12.38
2022-10-15T19:03:57.681Z,12.26
2022-10-15T19:06:27.763Z,12.32
2022-10-15T19:08:57.765Z,12.32
2022-10-15T19:11:25.407Z,12.34
2022-10-15T19:13:52.898Z,12.33
2022-10-15T19:16:20.312Z,12.27
2022-10-15T19:18:47.756Z,12.31
2022-10-15T19:21:16.561Z,12.27
2022-10-15T19:23:44.073Z,12.27
2022-10-15T19:26:13.592Z,12.18
2022-10-15T19:28:41.418Z,12.13
2022-10-15T19:31:11.244Z,12.04
2022-10-15T19:33:38.775Z,11.98
2022-10-15T19:36:06.491Z,11.86
2022-10-15T19:38:35.516Z,11.82
2022-10-15T19:41:04.524Z,11.83
2022-10-15T19:43:32.005Z,11.79
2022-10-15T19:46:03.903Z,11.90
2022-10-15T19:48:32.004Z,11.81
2022-10-15T19:51:02.164Z,11.63
2022-10-15T19:53:30.264Z,11.64
2022-10-15T19:56:00.673Z,11.52
2022-10-15T19:58:28.264Z,11.45
2022-10-15T20:00:56.415Z,11.45
2022-10-15T20:03:25.289Z,11.36
2022-10-15T20:05:52.790Z,11.35
2022-10-15T20:08:20.423Z,11.28
2022-10-15T20:10:51.932Z,11.40
2022-10-15T20:13:22.066Z,11.26
2022-10-15T20:15:51.181Z,11.31
2022-10-15T20:18:19.579Z,11.28
2022-10-15T20:20:47.389Z,11.27
2022-10-15T20:23:15.248Z,11.23
2022-10-15T20:25:43.767Z,11.33
2022-10-15T20:28:12.127Z,11.33
2022-10-15T20:30:41.534Z,11.30
2022-10-15T20:33:10.137Z,11.36
2022-10-15T20:35:38.949Z,11.44
2022-10-15T20:38:07.324Z,11.44
2022-10-15T20:40:36.196Z,11.51
2022-10-15T20:43:03.587Z,11.47
2022-10-15T20:45:37.673Z,11.47
2022-10-15T20:48:07.776Z,11.49
2022-10-15T20:50:36.621Z,11.44
2022-10-15T20:53:04.211Z,11.38
2022-10-15T20:55:31.627Z,11.39
2022-10-15T20:57:59.096Z,11.38
2022-10-15T21:00:26.489Z,11.35
2022-10-15T21:02:53.875Z,11.40
2022-10-15T21:05:22.996Z,11.43
2022-10-15T21:07:50.408Z,11.43
2022-10-15T21:10:17.879Z,11.40
2022-10-15T21:12:45.412Z,11.41
2022-10-15T21:15:12.836Z,11.37
2022-10-15T21:17:40.888Z,11.33
2022-10-15T21:20:09.696Z,11.27
2022-10-15T21:22:38.430Z,11.29
2022-10-15T21:25:06.948Z,11.26
2022-10-15T21:27:34.664Z,11.15
2022-10-15T21:30:02.067Z,11.20
2022-10-15T21:32:29.476Z,11.13
2022-10-15T21:34:57.305Z,11.10
2022-10-15T21:37:25.049Z,11.16
2022-10-15T21:39:53.947Z,11.14
2022-10-15T21:42:21.338Z,11.21
2022-10-15T21:44:48.760Z,11.23
2022-10-15T21:47:16.179Z,11.19
2022-10-15T21:49:45.599Z,11.21
2022-10-15T21:52:13.375Z,11.24
2022-10-15T21:54:40.873Z,11.20
2022-10-15T21:57:09.604Z,11.23
2022-10-15T21:59:37.052Z,11.14
2022-10-15T22:02:04.627Z,11.34
2022-10-15T22:04:34.126Z,11.27
2022-10-15T22:07:01.651Z,11.15
2022-10-15T22:09:29.308Z,11.04
2022-10-15T22:11:56.802Z,11.04
2022-10-15T22:14:25.578Z,11.03
2022-10-15T22:16:53.024Z,10.97
2022-10-15T22:19:20.440Z,11.03
2022-10-15T22:21:47.884Z,11.01
2022-10-15T22:24:19.060Z,11.15
2022-10-15T22:26:48.397Z,11.12
2022-10-15T22:29:18.808Z,11.15
2022-10-15T22:31:47.936Z,11.20
2022-10-15T22:34:15.532Z,11.09
2022-10-15T22:36:42.972Z,11.12
2022-10-15T22:39:13.801Z,11.12
2022-10-15T22:41:43.224Z,11.18
2022-10-15T22:44:14.616Z,11.19
2022-10-15T22:46:45.909Z,11.20
2022-10-15T22:49:15.089Z,11.17
2022-10-15T22:51:43.134Z,11.15
2022-10-15T22:54:10.597Z,11.21
2022-10-15T22:56:38.232Z,11.24
2022-10-15T22:59:06.066Z,11.24
2022-10-15T23:01:35.323Z,11.29
2022-10-15T23:04:04.798Z,11.29
2022-10-15T23:06:36.176Z,11.20
2022-10-15T23:09:05.633Z,11.22
2022-10-15T23:11:35.833Z,11.24
2022-10-15T23:14:05.726Z,11.24
2022-10-15T23:16:34.674Z,11.30
2022-10-15T23:19:04.306Z,11.29
2022-10-15T23:21:35.807Z,11.28
2022-10-15T23:24:04.002Z,11.23
2022-10-15T23:26:32.185Z,11.17
2022-10-15T23:29:01.334Z,11.19
2022-10-15T23:31:31.120Z,11.16
2022-10-15T23:33:59.504Z,11.19
2022-10-15T23:36:28.412Z,11.15
2022-10-15T23:38:59.290Z,11.14
2022-10-15T23:41:28.124Z,11.15
2022-10-15T23:43:55.850Z,11.13
2022-10-15T23:46:23.471Z,11.14
2022-10-15T23:48:51.165Z,11.11
2022-10-15T23:51:21.451Z,11.09
2022-10-15T23:53:49.277Z,11.04
2022-10-15T23:56:18.558Z,11.06
2022-10-15T23:58:48.728Z,11.05
